Time;durP1;ratioP1;P1;durP2;ratioP2;P2;SDS_P1;SDS_P2;PMS_P1;PMS_P2;Temp;Humidity;BMP_temperature;BMP_pressure;BME280_temperature;BME280_humidity;BME280_pressure;Samples;Min_cycle;Max_cycle;Signal;HPM_P1;HPM_P2
2023/03/20 00:00:34;;;;;;;;;;;;;;;7.81;97.82;101952.00;5023803;28;19921;-63
2023/03/20 00:03:00;;;;;;;;;;;;;;;7.82;97.63;101950.19;5024758;28;20294;-64
2023/03/20 00:05:27;;;;;;;;;;;;;;;7.83;97.79;101949.22;5024435;28;19917;-64
2023/03/20 00:07:52;;;;;;;;;;;;;;;7.81;97.71;101945.88;5023908;28;19924;-63
2023/03/20 00:10:18;;;;;;;;;;;;;;;7.80;97.73;101938.88;5023940;28;19944;-64
2023/03/20 00:12:44;;;;;;;;;;;;;;;7.79;97.46;101938.03;5028470;28;20055;-64
2023/03/20 00:15:18;;;;;;;;;;;;;;;7.79;97.40;101938.03;5014433;28;19921;-63
2023/03/20 00:17:44;;;;;;;;;;;;;;;7.76;96.99;101944.41;5019383;28;19917;-64
2023/03/20 00:20:13;;;;;;;;;;;;;;;7.73;96.74;101936.75;5020215;28;19964;-64
2023/03/20 00:22:38;;;;;;;;;;;;;;;7.73;96.82;101939.38;5025544;28;19917;-64
2023/03/20 00:25:04;;;;;;;;;;;;;;;7.73;96.52;101938.53;5021295;28;19924;-63
2023/03/20 00:27:29;;;;;;;;;;;;;;;7.71;96.50;101925.44;5019373;28;20309;-64
2023/03/20 00:29:54;;;;;;;;;;;;;;;7.69;96.25;101921.25;5024703;28;19986;-65
2023/03/20 00:32:19;;;;;;;;;;;;;;;7.68;96.58;101917.78;5022847;28;19925;-64
2023/03/20 00:34:44;;;;;;;;;;;;;;;7.66;96.27;101914.41;5028085;28;19932;-63
2023/03/20 00:37:13;;;;;;;;;;;;;;;7.66;95.84;101909.13;5025777;28;19927;-64
2023/03/20 00:39:39;;;;;;;;;;;;;;;7.66;96.05;101903.84;5020225;28;19917;-64
2023/03/20 00:42:05;;;;;;;;;;;;;;;7.65;95.50;101902.16;5021933;28;19971;-66
2023/03/20 00:44:35;;;;;;;;;;;;;;;7.62;95.59;101894.50;5018190;28;19957;-66
2023/03/20 00:47:17;;;;;;;;;;;;;;;7.62;95.56;101885.72;5021590;28;19921;-66
2023/03/20 00:49:44;;;;;;;;;;;;;;;7.62;95.57;101893.66;5015930;28;20385;-66
2023/03/20 00:52:11;;;;;;;;;;;;;;;7.58;95.12;101887.78;5019835;28;19972;-66
2023/03/20 00:54:36;;;;;;;;;;;;;;;7.55;95.23;101906.53;5020438;28;19930;-66
2023/03/20 00:57:04;;;;;;;;;;;;;;;7.51;95.67;101915.66;5028511;28;19920;-66
2023/03/20 00:59:35;;;;;;;;;;;;;;;7.46;95.66;101923.94;5021584;28;19963;-66
2023/03/20 01:02:01;;;;;;;;;;;;;;;7.44;95.81;101940.91;5020863;28;20032;-65
2023/03/20 01:04:30;;;;;;;;;;;;;;;7.37;95.35;101945.00;5022550;28;20446;-65
2023/03/20 01:06:55;;;;;;;;;;;;;;;7.28;95.34;101956.31;5022192;28;20008;-64
2023/03/20 01:09:20;;;;;;;;;;;;;;;7.21;95.54;101955.09;5021659;28;20612;-63
2023/03/20 01:11:46;;;;;;;;;;;;;;;7.19;96.21;101963.16;5025602;28;19921;-64
2023/03/20 01:14:12;;;;;;;;;;;;;;;7.18;96.34;101948.25;5027476;28;20382;-63
2023/03/20 01:16:37;;;;;;;;;;;;;;;7.19;96.82;101941.16;5025024;28;20366;-63
2023/03/20 01:19:02;;;;;;;;;;;;;;;7.17;96.99;101927.25;5024857;28;20010;-64
2023/03/20 01:21:28;;;;;;;;;;;;;;;7.14;96.95;101933.63;5025452;28;20017;-63
2023/03/20 01:23:53;;;;;;;;;;;;;;;7.10;96.99;101932.19;5025124;28;19921;-64
2023/03/20 01:26:29;;;;;;;;;;;;;;;7.07;96.87;101925.34;5025431;28;19940;-64
2023/03/20 01:28:54;;;;;;;;;;;;;;;7.04;96.88;101938.78;5017352;28;19964;-63
2023/03/20 01:31:19;;;;;;;;;;;;;;;7.01;96.87;101954.88;5028555;28;19956;-64
2023/03/20 01:33:45;;;;;;;;;;;;;;;6.95;96.38;101955.38;5021313;28;20006;-63
2023/03/20 01:36:11;;;;;;;;;;;;;;;6.88;96.77;101946.22;5023767;28;19924;-63
2023/03/20 01:38:37;;;;;;;;;;;;;;;6.80;96.66;101951.25;5017110;28;19917;-64
2023/03/20 01:41:07;;;;;;;;;;;;;;;6.74;96.59;101942.03;5027127;28;19917;-63
2023/03/20 01:43:33;;;;;;;;;;;;;;;6.70;96.59;101951.16;5026196;28;19958;-64
2023/03/20 01:46:00;;;;;;;;;;;;;;;6.67;96.63;101938.19;5023040;28;19917;-64
2023/03/20 01:48:30;;;;;;;;;;;;;;;6.67;96.84;101929.44;5028736;28;20421;-64
2023/03/20 01:50:56;;;;;;;;;;;;;;;6.64;96.63;101935.75;5030978;28;19928;-64
2023/03/20 01:53:26;;;;;;;;;;;;;;;6.60;96.54;101933.47;5023755;28;19921;-64
2023/03/20 01:55:53;;;;;;;;;;;;;;;6.60;96.62;101944.03;5023265;28;19917;-64
2023/03/20 01:58:21;;;;;;;;;;;;;;;6.59;96.71;101942.34;5026913;28;19932;-63
2023/03/20 02:00:49;;;;;;;;;;;;;;;6.57;96.62;101939.00;5029711;28;20648;-64
2023/03/20 02:03:15;;;;;;;;;;;;;;;6.53;96.99;101927.84;5023897;28;19918;-64
2023/03/20 02:05:42;;;;;;;;;;;;;;;6.50;97.29;101928.06;5026553;28;19923;-64
2023/03/20 02:08:07;;;;;;;;;;;;;;;6.49;96.82;101921.13;5027706;28;20638;-64
2023/03/20 02:10:32;;;;;;;;;;;;;;;6.43;97.35;101917.16;5030289;28;20404;-63
2023/03/20 02:12:58;;;;;;;;;;;;;;;6.41;97.29;101939.34;5029127;28;20416;-64
2023/03/20 02:15:26;;;;;;;;;;;;;;;6.39;97.34;101942.09;5028020;28;19916;-63
2023/03/20 02:17:51;;;;;;;;;;;;;;;6.37;97.73;101943.16;5020880;28;19917;-64
2023/03/20 02:20:31;;;;;;;;;;;;;;;6.37;97.51;101951.09;5025322;28;19928;-64
2023/03/20 02:23:02;;;;;;;;;;;;;;;6.34;97.74;101949.50;5030277;28;20016;-63
2023/03/20 02:25:46;;;;;;;;;;;;;;;6.34;97.78;101957.41;5023175;28;19948;-63
2023/03/20 02:28:27;;;;;;;;;;;;;;;6.32;97.61;101955.84;5027351;28;19921;-63
2023/03/20 02:30:59;;;;;;;;;;;;;;;6.29;97.43;101948.16;5016357;28;19921;-63
2023/03/20 02:33:43;;;;;;;;;;;;;;;6.28;97.35;101951.75;5026536;28;20042;-63
2023/03/20 02:36:31;;;;;;;;;;;;;;;6.25;97.59;101944.91;5019417;28;20059;-64
2023/03/20 02:39:07;;;;;;;;;;;;;;;6.22;97.71;101940.72;5028349;28;19921;-64
2023/03/20 02:41:51;;;;;;;;;;;;;;;6.20;97.46;101934.72;5020147;28;19917;-63
2023/03/20 02:44:24;;;;;;;;;;;;;;;6.16;97.43;101927.16;5038523;28;19996;-64
2023/03/20 02:47:05;;;;;;;;;;;;;;;6.14;97.80;101932.53;5021874;28;19924;-64
2023/03/20 02:49:44;;;;;;;;;;;;;;;6.10;97.70;101931.09;5017560;28;20492;-64
2023/03/20 02:52:16;;;;;;;;;;;;;;;6.10;98.11;101923.19;5021673;28;19919;-63
2023/03/20 02:55:01;;;;;;;;;;;;;;;6.07;98.10;101926.06;5027622;28;19985;-63
2023/03/20 02:57:45;;;;;;;;;;;;;;;6.05;98.23;101916.56;5026557;28;19928;-64
2023/03/20 03:00:10;;;;;;;;;;;;;;;6.03;98.54;101915.81;5028556;28;19913;-64
2023/03/20 03:02:41;;;;;;;;;;;;;;;6.01;98.75;101915.94;5027400;28;19917;-63
2023/03/20 03:05:11;;;;;;;;;;;;;;;6.01;98.43;101904.56;5025423;28;19975;-64
2023/03/20 03:07:38;;;;;;;;;;;;;;;5.98;98.71;101905.63;5021837;28;20011;-63
2023/03/20 03:10:29;;;;;;;;;;;;;;;5.97;99.02;101897.84;5026933;28;19913;-63
2023/03/20 03:12:56;;;;;;;;;;;;;;;5.94;98.99;101892.78;5022792;28;19924;-63
2023/03/20 03:15:37;;;;;;;;;;;;;;;5.93;98.83;101891.13;5029386;28;19974;-63
2023/03/20 03:18:05;;;;;;;;;;;;;;;5.90;99.06;101887.75;5027095;28;20003;-64
2023/03/20 03:20:32;;;;;;;;;;;;;;;5.87;99.37;101881.84;5026829;28;19917;-63
2023/03/20 03:22:58;;;;;;;;;;;;;;;5.87;99.29;101868.66;5022826;28;19921;-63
2023/03/20 03:25:25;;;;;;;;;;;;;;;5.84;99.21;101872.38;5021050;28;19924;-63
2023/03/20 03:27:55;;;;;;;;;;;;;;;5.82;99.64;101879.56;5021747;28;20375;-63
2023/03/20 03:30:24;;;;;;;;;;;;;;;5.81;99.49;101887.56;5019521;28;19920;-64
2023/03/20 03:33:02;;;;;;;;;;;;;;;5.79;99.44;101881.59;5017312;28;20413;-64
2023/03/20 03:35:27;;;;;;;;;;;;;;;5.80;99.75;101885.91;5028104;28;19985;-63
2023/03/20 03:37:59;;;;;;;;;;;;;;;5.79;99.71;101885.06;5022684;28;20026;-63
2023/03/20 03:40:42;;;;;;;;;;;;;;;5.76;99.87;101872.06;5025404;28;19917;-63
2023/03/20 03:43:10;;;;;;;;;;;;;;;5.75;100.00;101873.03;5020141;28;19956;-63
2023/03/20 03:45:39;;;;;;;;;;;;;;;5.75;99.82;101878.31;5019664;28;20054;-64
2023/03/20 03:48:11;;;;;;;;;;;;;;;5.74;99.96;101874.00;5029745;28;20369;-63
2023/03/20 03:50:48;;;;;;;;;;;;;;;5.72;100.00;101878.53;5015336;28;19920;-63
2023/03/20 03:53:16;;;;;;;;;;;;;;;5.72;100.00;101872.44;5020138;28;20012;-64
2023/03/20 03:55:44;;;;;;;;;;;;;;;5.70;100.00;101880.44;5027131;28;20329;-66
2023/03/20 03:58:15;;;;;;;;;;;;;;;5.69;100.00;101870.84;5018880;28;19917;-66
2023/03/20 04:00:41;;;;;;;;;;;;;;;5.69;100.00;101867.38;5024627;28;19917;-65
2023/03/20 04:03:07;;;;;;;;;;;;;;;5.66;100.00;101868.47;5022457;28;19925;-65
2023/03/20 04:05:35;;;;;;;;;;;;;;;5.65;100.00;101866.78;5022592;28;20625;-65
2023/03/20 04:08:01;;;;;;;;;;;;;;;5.64;100.00;101859.00;5021784;28;20004;-65
2023/03/20 04:10:26;;;;;;;;;;;;;;;5.62;100.00;101858.25;5022041;28;20015;-65
2023/03/20 04:12:51;;;;;;;;;;;;;;;5.61;100.00;101862.69;5024091;28;19921;-66
2023/03/20 04:15:17;;;;;;;;;;;;;;;5.60;100.00;101859.22;5026528;28;20397;-66
2023/03/20 04:17:42;;;;;;;;;;;;;;;5.60;100.00;101850.47;5014015;28;19917;-66
2023/03/20 04:20:08;;;;;;;;;;;;;;;5.58;100.00;101861.13;5027677;28;20417;-66
2023/03/20 04:22:33;;;;;;;;;;;;;;;5.57;100.00;101864.72;5019474;28;19917;-66
2023/03/20 04:25:02;;;;;;;;;;;;;;;5.56;100.00;101863.03;5020456;28;20286;-66
2023/03/20 04:27:28;;;;;;;;;;;;;;;5.54;100.00;101849.13;5023860;28;19917;-65
2023/03/20 04:29:53;;;;;;;;;;;;;;;5.53;99.92;101855.34;5023984;28;20014;-66
2023/03/20 04:32:18;;;;;;;;;;;;;;;5.50;100.00;101849.47;5015712;28;20531;-66
2023/03/20 04:34:43;;;;;;;;;;;;;;;5.48;99.97;101856.63;5018211;28;19960;-66
2023/03/20 04:37:09;;;;;;;;;;;;;;;5.47;100.00;101857.59;5016652;28;19948;-65
2023/03/20 04:39:35;;;;;;;;;;;;;;;5.47;100.00;101849.69;5022264;28;19921;-65
2023/03/20 04:42:00;;;;;;;;;;;;;;;5.45;100.00;101839.25;5017143;28;19929;-66
2023/03/20 04:44:26;;;;;;;;;;;;;;;5.46;100.00;101835.66;5017518;28;19924;-65
2023/03/20 04:46:51;;;;;;;;;;;;;;;5.46;100.00;101832.19;5023950;28;20584;-65
2023/03/20 04:49:16;;;;;;;;;;;;;;;5.46;100.00;101830.41;5019146;28;19921;-65
2023/03/20 04:51:41;;;;;;;;;;;;;;;5.47;100.00;101831.22;5018406;28;20345;-66
2023/03/20 04:54:06;;;;;;;;;;;;;;;5.46;100.00;101837.47;5018838;28;20312;-66
2023/03/20 04:56:31;;;;;;;;;;;;;;;5.48;100.00;101832.91;5022691;28;20400;-67
2023/03/20 04:58:57;;;;;;;;;;;;;;;5.48;100.00;101846.09;5022898;28;19921;-65
2023/03/20 05:01:22;;;;;;;;;;;;;;;5.49;100.00;101842.50;5022370;28;20049;-65
2023/03/20 05:03:47;;;;;;;;;;;;;;;5.49;100.00;101850.41;5024679;28;19917;-65
2023/03/20 05:06:13;;;;;;;;;;;;;;;5.51;100.00;101845.88;5024397;28;19929;-65
2023/03/20 05:08:38;;;;;;;;;;;;;;;5.51;100.00;101833.56;5019721;28;19925;-66
2023/03/20 05:11:03;;;;;;;;;;;;;;;5.53;100.00;101836.06;5024736;28;19940;-63
2023/03/20 05:13:28;;;;;;;;;;;;;;;5.52;100.00;101829.97;5025457;28;20028;-64
2023/03/20 05:15:53;;;;;;;;;;;;;;;5.52;100.00;101824.69;5019444;28;20425;-63
2023/03/20 05:18:19;;;;;;;;;;;;;;;5.52;100.00;101818.59;5023532;28;19924;-63
2023/03/20 05:20:44;;;;;;;;;;;;;;;5.52;100.00;101827.34;5028150;28;20526;-62
2023/03/20 05:23:09;;;;;;;;;;;;;;;5.53;100.00;101825.53;5022268;28;19923;-63
2023/03/20 05:25:34;;;;;;;;;;;;;;;5.53;100.00;101830.81;5019117;28;20409;-62
2023/03/20 05:28:00;;;;;;;;;;;;;;;5.53;100.00;101829.00;5023482;28;19925;-63
2023/03/20 05:30:25;;;;;;;;;;;;;;;5.54;100.00;101827.22;5024786;28;20453;-63
2023/03/20 05:32:51;;;;;;;;;;;;;;;5.54;100.00;101833.31;5017318;28;19936;-62
2023/03/20 05:35:16;;;;;;;;;;;;;;;5.52;100.00;101824.69;5020638;28;20397;-63
2023/03/20 05:37:41;;;;;;;;;;;;;;;5.53;100.00;101825.53;5020829;28;19921;-63
2023/03/20 05:40:07;;;;;;;;;;;;;;;5.53;100.00;101833.44;5020447;28;20481;-62
2023/03/20 05:42:32;;;;;;;;;;;;;;;5.53;100.00;101826.38;5014863;28;20004;-63
2023/03/20 05:44:57;;;;;;;;;;;;;;;5.54;100.00;101838.59;5022509;28;19971;-63
2023/03/20 05:47:22;;;;;;;;;;;;;;;5.54;100.00;101830.69;5020784;28;20298;-62
2023/03/20 05:49:48;;;;;;;;;;;;;;;5.55;100.00;101839.44;5015973;28;19951;-63
2023/03/20 05:52:13;;;;;;;;;;;;;;;5.56;100.00;101841.13;5018109;28;19918;-62
2023/03/20 05:54:38;;;;;;;;;;;;;;;5.57;100.00;101846.28;5020734;28;19940;-63
2023/03/20 05:57:03;;;;;;;;;;;;;;;5.58;100.00;101849.75;5019337;28;19913;-62
2023/03/20 05:59:28;;;;;;;;;;;;;;;5.60;100.00;101855.75;5025796;28;19917;-63
2023/03/20 06:01:53;;;;;;;;;;;;;;;5.61;100.00;101852.16;5017688;28;20283;-63
2023/03/20 06:04:19;;;;;;;;;;;;;;;5.63;100.00;101859.94;5026071;28;19968;-62
2023/03/20 06:06:44;;;;;;;;;;;;;;;5.62;100.00;101859.09;5023863;28;20378;-63
2023/03/20 06:09:09;;;;;;;;;;;;;;;5.64;100.00;101859.00;5016118;28;19917;-62
2023/03/20 06:11:35;;;;;;;;;;;;;;;5.67;100.00;101864.88;5017309;28;20442;-62
2023/03/20 06:14:00;;;;;;;;;;;;;;;5.68;100.00;101866.53;5014280;28;19980;-63
2023/03/20 06:16:26;;;;;;;;;;;;;;;5.69;100.00;101868.22;5021250;28;19917;-62
2023/03/20 06:18:51;;;;;;;;;;;;;;;5.71;100.00;101871.59;5023834;28;19924;-62
2023/03/20 06:21:16;;;;;;;;;;;;;;;5.73;99.73;101874.09;5015222;28;19914;-63
2023/03/20 06:23:41;;;;;;;;;;;;;;;5.68;99.78;101863.06;5027525;28;20452;-62
2023/03/20 06:26:07;;;;;;;;;;;;;;;5.76;99.85;101877.34;5023783;28;19923;-63
2023/03/20 06:28:32;;;;;;;;;;;;;;;5.78;99.75;101883.38;5021644;28;19917;-62
2023/03/20 06:30:57;;;;;;;;;;;;;;;5.81;99.60;101884.94;5030398;28;19917;-62
2023/03/20 06:33:22;;;;;;;;;;;;;;;5.81;99.31;101885.78;5022741;28;19929;-62
2023/03/20 06:35:48;;;;;;;;;;;;;;;5.84;99.32;101884.72;5028802;28;20325;-63
2023/03/20 06:38:13;;;;;;;;;;;;;;;5.87;99.14;101884.47;5016891;28;20375;-63
2023/03/20 06:40:39;;;;;;;;;;;;;;;5.87;99.24;101887.97;5022689;28;19925;-63
2023/03/20 06:43:04;;;;;;;;;;;;;;;5.90;99.25;101887.75;5017834;28;20414;-62
2023/03/20 06:45:29;;;;;;;;;;;;;;;5.93;99.12;101891.97;5025045;28;19921;-63
2023/03/20 06:47:54;;;;;;;;;;;;;;;5.94;99.00;101888.38;5027228;28;19925;-62
2023/03/20 06:50:19;;;;;;;;;;;;;;;5.97;98.59;101896.03;5018734;28;20466;-62
2023/03/20 06:52:45;;;;;;;;;;;;;;;5.98;98.50;101907.44;5017984;28;19917;-63
2023/03/20 06:55:11;;;;;;;;;;;;;;;5.99;98.38;101904.66;5020295;28;19924;-63
2023/03/20 06:57:36;;;;;;;;;;;;;;;6.00;98.06;101902.88;5025370;28;20480;-62
2023/03/20 07:00:03;;;;;;;;;;;;;;;6.01;98.04;101908.03;5027100;28;19923;-63
2023/03/20 07:02:28;;;;;;;;;;;;;;;6.02;97.93;101903.59;5024705;28;20377;-62
2023/03/20 07:04:53;;;;;;;;;;;;;;;6.04;98.15;101899.88;5027515;28;19924;-62
2023/03/20 07:07:18;;;;;;;;;;;;;;;6.06;98.13;101910.31;5022845;28;20003;-63
2023/03/20 07:09:44;;;;;;;;;;;;;;;6.07;98.23;101917.28;5025768;28;19917;-63
2023/03/20 07:12:18;;;;;;;;;;;;;;;6.08;97.92;101916.34;5023871;28;20298;-63
2023/03/20 07:14:44;;;;;;;;;;;;;;;6.12;98.07;101920.44;5020556;28;20016;-63
2023/03/20 07:17:09;;;;;;;;;;;;;;;6.14;98.08;101922.00;5020008;28;20327;-64
2023/03/20 07:19:35;;;;;;;;;;;;;;;6.15;97.96;101914.94;5025911;28;20400;-62
2023/03/20 07:22:01;;;;;;;;;;;;;;;6.16;97.52;101920.09;5025725;28;20552;-62
2023/03/20 07:24:27;;;;;;;;;;;;;;;6.16;97.45;101925.34;5023629;28;19928;-62
2023/03/20 07:26:52;;;;;;;;;;;;;;;6.18;97.37;101930.53;5025494;28;20319;-63
2023/03/20 07:29:17;;;;;;;;;;;;;;;6.20;97.10;101928.59;5026812;28;20383;-63
2023/03/20 07:31:42;;;;;;;;;;;;;;;6.21;97.22;101925.84;5019138;28;20009;-62
2023/03/20 07:34:08;;;;;;;;;;;;;;;6.24;96.96;101922.13;5021526;28;19960;-62
2023/03/20 07:36:33;;;;;;;;;;;;;;;6.26;96.95;101928.13;5019928;28;19939;-62
2023/03/20 07:38:58;;;;;;;;;;;;;;;6.28;96.67;101934.13;5024833;28;20397;-63
2023/03/20 07:41:23;;;;;;;;;;;;;;;6.31;96.93;101925.97;5028658;28;20010;-63
2023/03/20 07:43:48;;;;;;;;;;;;;;;6.31;96.61;101925.97;5022750;28;20298;-63
2023/03/20 07:46:13;;;;;;;;;;;;;;;6.33;96.38;101926.69;5027249;28;20319;-62
2023/03/20 07:48:39;;;;;;;;;;;;;;;6.36;96.33;101926.50;5022984;28;20028;-63
2023/03/20 07:51:04;;;;;;;;;;;;;;;6.37;95.95;101922.06;5022478;28;19967;-63
2023/03/20 07:53:30;;;;;;;;;;;;;;;6.39;95.85;101922.78;5015697;28;20362;-63
2023/03/20 07:55:55;;;;;;;;;;;;;;;6.39;95.71;101920.16;5022591;28;19995;-63
2023/03/20 07:58:20;;;;;;;;;;;;;;;6.42;95.38;101907.56;5026304;28;19975;-63
2023/03/20 08:00:45;;;;;;;;;;;;;;;6.44;95.36;101918.00;5025200;28;19913;-62
2023/03/20 08:03:11;;;;;;;;;;;;;;;6.44;94.96;101924.13;5021396;28;19983;-63
2023/03/20 08:05:36;;;;;;;;;;;;;;;6.44;94.68;101924.13;5027435;28;20383;-63
2023/03/20 08:08:01;;;;;;;;;;;;;;;6.44;94.82;101918.00;5019456;28;20367;-63
2023/03/20 08:10:26;;;;;;;;;;;;;;;6.44;94.69;101924.13;5027822;28;19928;-63
2023/03/20 08:12:52;;;;;;;;;;;;;;;6.45;94.34;101923.16;5021423;28;19921;-62
2023/03/20 08:15:17;;;;;;;;;;;;;;;6.46;94.57;101918.72;5026705;28;19971;-63
2023/03/20 08:17:45;;;;;;;;;;;;;;;6.49;93.98;101926.41;5023924;28;19921;-62
2023/03/20 08:20:11;;;;;;;;;;;;;;;6.50;94.05;101921.00;5022409;28;19921;-62
2023/03/20 08:22:37;;;;;;;;;;;;;;;6.52;93.97;101927.00;5015747;28;19968;-63
2023/03/20 08:25:02;;;;;;;;;;;;;;;6.56;94.08;101921.47;5025279;28;20374;-62
2023/03/20 08:27:27;;;;;;;;;;;;;;;6.56;93.58;101910.91;5022202;28;19964;-62
2023/03/20 08:29:53;;;;;;;;;;;;;;;6.61;93.82;101916.69;5016545;28;19920;-63
2023/03/20 08:32:18;;;;;;;;;;;;;;;6.65;93.45;101923.41;5021119;28;19975;-62
2023/03/20 08:34:43;;;;;;;;;;;;;;;6.67;93.34;101921.50;5023734;28;20007;-62
2023/03/20 08:37:08;;;;;;;;;;;;;;;6.71;92.96;101931.72;5018071;28;19917;-62
2023/03/20 08:39:34;;;;;;;;;;;;;;;6.74;92.90;101934.09;5022921;28;20324;-63
2023/03/20 08:41:59;;;;;;;;;;;;;;;6.78;92.75;101919.72;5016263;28;20762;-63
2023/03/20 08:44:25;;;;;;;;;;;;;;;6.79;92.10;101923.19;5017972;28;20397;-63
2023/03/20 08:46:52;;;;;;;;;;;;;;;6.82;92.20;101923.78;5024813;28;19936;-62
2023/03/20 08:49:17;;;;;;;;;;;;;;;6.85;91.90;101925.34;5024643;28;19921;-63
2023/03/20 08:51:43;;;;;;;;;;;;;;;6.86;91.73;101913.81;5015768;28;19991;-62
2023/03/20 08:54:08;;;;;;;;;;;;;;;6.92;91.92;101923.06;5020656;28;19968;-63
2023/03/20 08:56:34;;;;;;;;;;;;;;;6.99;91.95;101917.19;5020239;28;20378;-63
2023/03/20 08:58:59;;;;;;;;;;;;;;;7.04;91.72;101911.53;5021618;28;19923;-63
2023/03/20 09:01:24;;;;;;;;;;;;;;;7.01;91.30;101911.78;5021135;28;20416;-63
2023/03/20 09:03:51;;;;;;;;;;;;;;;7.07;91.02;101912.13;5018853;28;19921;-63
2023/03/20 09:06:16;;;;;;;;;;;;;;;7.08;90.76;101913.81;5017584;28;19917;-63
2023/03/20 09:08:42;;;;;;;;;;;;;;;7.08;90.43;101916.47;5021468;28;19913;-63
2023/03/20 09:11:07;;;;;;;;;;;;;;;7.09;90.28;101919.94;5015429;28;20383;-63
2023/03/20 09:13:33;;;;;;;;;;;;;;;7.08;89.93;101923.53;5024042;28;19923;-63
2023/03/20 09:15:58;;;;;;;;;;;;;;;7.07;90.07;101925.34;5021181;28;19919;-63
2023/03/20 09:18:24;;;;;;;;;;;;;;;7.03;90.03;101931.00;5027366;28;19920;-62
2023/03/20 09:20:49;;;;;;;;;;;;;;;7.01;91.09;101939.03;5022382;28;20047;-63
2023/03/20 09:23:15;;;;;;;;;;;;;;;7.01;91.91;101931.13;5010803;28;19921;-63
2023/03/20 09:25:40;;;;;;;;;;;;;;;7.01;91.88;101928.47;5019890;28;19923;-63
2023/03/20 09:28:05;;;;;;;;;;;;;;;7.01;92.09;101936.41;5013580;28;19929;-63
2023/03/20 09:30:30;;;;;;;;;;;;;;;6.94;92.51;101931.69;5018754;28;19920;-63
2023/03/20 09:32:56;;;;;;;;;;;;;;;6.92;93.50;101933.63;5015882;28;19918;-64
2023/03/20 09:35:21;;;;;;;;;;;;;;;6.91;93.02;101938.06;5017001;28;19996;-63
2023/03/20 09:37:46;;;;;;;;;;;;;;;6.88;93.57;101943.59;5024254;28;19921;-64
2023/03/20 09:40:32;;;;;;;;;;;;;;;6.91;93.96;101943.34;5020302;28;19967;-64
2023/03/20 09:43:04;;;;;;;;;;;;;;;6.91;93.71;101935.41;5006292;28;19921;-64
2023/03/20 09:45:35;;;;;;;;;;;;;;;6.90;93.41;101939.03;5020736;28;20416;-64
2023/03/20 09:48:20;;;;;;;;;;;;;;;6.94;94.06;101929.06;5022131;28;20294;-63
2023/03/20 09:50:54;;;;;;;;;;;;;;;6.98;94.13;101933.16;5018873;28;19913;-64
2023/03/20 09:53:24;;;;;;;;;;;;;;;7.00;94.36;101940.00;5021517;28;20031;-63
2023/03/20 09:55:50;;;;;;;;;;;;;;;7.00;94.42;101932.06;5031994;28;19920;-63
2023/03/20 09:58:27;;;;;;;;;;;;;;;7.00;94.52;101926.78;5025279;28;19914;-63
2023/03/20 10:00:55;;;;;;;;;;;;;;;6.99;94.92;101930.41;5027403;28;19921;-63
2023/03/20 10:03:26;;;;;;;;;;;;;;;6.96;94.91;101924.53;5029299;28;20043;-63
2023/03/20 10:06:04;;;;;;;;;;;;;;;7.00;95.28;101925.97;5030693;28;20720;-63
2023/03/20 10:08:35;;;;;;;;;;;;;;;7.00;95.42;101928.59;5023061;28;19917;-63
2023/03/20 10:11:28;;;;;;;;;;;;;;;7.03;95.86;101931.00;5025126;28;20410;-63
2023/03/20 10:14:28;;;;;;;;;;;;;;;7.05;95.78;101926.44;5023589;28;19963;-63
2023/03/20 10:17:12;;;;;;;;;;;;;;;7.07;96.20;101917.41;4964020;28;19968;-63
2023/03/20 10:19:48;;;;;;;;;;;;;;;7.14;96.22;101920.41;5017359;28;19917;-64
2023/03/20 10:22:16;;;;;;;;;;;;;;;7.13;95.67;101911.66;5020825;28;19922;-63
2023/03/20 10:24:45;;;;;;;;;;;;;;;7.13;95.53;101909.00;5026720;28;19917;-63
2023/03/20 10:27:21;;;;;;;;;;;;;;;7.13;95.87;101918.72;5027619;28;19917;-63
2023/03/20 10:29:53;;;;;;;;;;;;;;;7.19;96.07;101914.75;5025098;28;20337;-64
2023/03/20 10:32:21;;;;;;;;;;;;;;;7.21;96.22;101912.81;5016780;28;19943;-63
2023/03/20 10:34:54;;;;;;;;;;;;;;;7.21;95.60;101908.38;5029368;28;19968;-63
2023/03/20 10:37:37;;;;;;;;;;;;;;;7.22;95.55;101914.50;5029525;28;20016;-63
2023/03/20 10:40:21;;;;;;;;;;;;;;;7.17;95.88;101914.03;5021132;28;19921;-64
2023/03/20 10:42:48;;;;;;;;;;;;;;;7.14;95.85;101907.19;5011359;28;19914;-64
2023/03/20 10:45:13;;;;;;;;;;;;;;;7.14;95.53;101910.69;5023643;28;19925;-64
2023/03/20 10:47:41;;;;;;;;;;;;;;;7.18;95.91;101910.44;5026463;28;19913;-63
2023/03/20 10:50:10;;;;;;;;;;;;;;;7.23;95.83;101908.25;5024457;28;20060;-63
2023/03/20 10:52:38;;;;;;;;;;;;;;;7.26;95.42;101906.25;5029523;28;19913;-63
2023/03/20 10:55:03;;;;;;;;;;;;;;;7.30;95.50;101902.38;5020923;28;19921;-63
2023/03/20 10:57:31;;;;;;;;;;;;;;;7.29;95.16;101915.72;5028711;28;20009;-63
2023/03/20 10:59:57;;;;;;;;;;;;;;;7.33;95.21;101911.88;5025740;28;19920;-63
2023/03/20 11:02:26;;;;;;;;;;;;;;;7.40;95.23;101911.25;5026580;28;19913;-64
2023/03/20 11:04:51;;;;;;;;;;;;;;;7.39;94.23;101908.72;5024061;28;19914;-64
2023/03/20 11:07:36;;;;;;;;;;;;;;;7.41;93.93;101898.88;5020897;28;19923;-63
2023/03/20 11:10:05;;;;;;;;;;;;;;;7.45;94.03;101895.00;5023949;28;20382;-63
2023/03/20 11:12:47;;;;;;;;;;;;;;;7.44;93.65;101893.31;5024128;28;19925;-63
2023/03/20 11:15:23;;;;;;;;;;;;;;;7.44;93.42;101883.59;5022639;28;19927;-63
2023/03/20 11:17:52;;;;;;;;;;;;;;;7.46;93.10;101891.41;5024382;28;19913;-63
2023/03/20 11:20:17;;;;;;;;;;;;;;;7.52;93.51;101875.06;5024508;28;19979;-62
2023/03/20 11:22:43;;;;;;;;;;;;;;;7.58;93.39;101873.72;5023351;28;20341;-63
2023/03/20 11:25:21;;;;;;;;;;;;;;;7.66;93.45;101869.47;5024249;28;19919;-63
2023/03/20 11:27:46;;;;;;;;;;;;;;;7.72;93.37;101871.59;5018410;28;19928;-63
2023/03/20 11:30:16;;;;;;;;;;;;;;;7.75;92.44;101870.50;5018952;28;19925;-63
2023/03/20 11:32:45;;;;;;;;;;;;;;;7.77;92.31;101864.13;5013403;28;19925;-63
2023/03/20 11:35:16;;;;;;;;;;;;;;;7.82;92.58;101866.41;5013701;28;19929;-63
2023/03/20 11:37:42;;;;;;;;;;;;;;;7.89;92.61;101857.00;5011278;28;19960;-63
2023/03/20 11:40:08;;;;;;;;;;;;;;;7.98;91.92;101863.31;5024608;28;19921;-63
2023/03/20 11:42:33;;;;;;;;;;;;;;;8.01;92.16;101860.41;5014283;28;20399;-63
2023/03/20 11:44:59;;;;;;;;;;;;;;;8.06;91.50;101858.22;5024550;28;20032;-63
2023/03/20 11:47:26;;;;;;;;;;;;;;;8.11;91.20;101855.19;5011909;28;19931;-62
2023/03/20 11:49:58;;;;;;;;;;;;;;;8.12;90.80;101859.53;5022563;28;19925;-62
2023/03/20 11:52:27;;;;;;;;;;;;;;;8.06;90.52;101856.41;5012363;28;19979;-63
2023/03/20 11:54:54;;;;;;;;;;;;;;;8.09;90.49;101857.94;5014332;28;19932;-62
2023/03/20 11:57:28;;;;;;;;;;;;;;;8.13;90.67;101858.56;5021031;28;19920;-63
2023/03/20 11:59:55;;;;;;;;;;;;;;;8.14;90.74;101861.06;5019299;28;20375;-61
2023/03/20 12:02:22;;;;;;;;;;;;;;;8.15;90.45;101854.81;5012343;28;19952;-63
2023/03/20 12:04:47;;;;;;;;;;;;;;;8.19;90.49;101847.44;5021782;28;19917;-63
2023/03/20 12:07:18;;;;;;;;;;;;;;;8.23;90.58;101841.75;5023142;28;20338;-63
2023/03/20 12:09:46;;;;;;;;;;;;;;;8.24;90.00;101847.88;5020669;28;19928;-63
2023/03/20 12:12:15;;;;;;;;;;;;;;;8.19;89.39;101845.63;5019579;28;20514;-62
2023/03/20 12:15:00;;;;;;;;;;;;;;;8.18;89.64;101841.31;5017829;28;19968;-63
2023/03/20 12:17:28;;;;;;;;;;;;;;;8.26;90.22;101841.50;5017218;28;19928;-63
2023/03/20 12:19:56;;;;;;;;;;;;;;;8.29;89.96;101846.53;5021575;28;19917;-62
2023/03/20 12:22:26;;;;;;;;;;;;;;;8.25;89.26;101846.91;5022647;28;19924;-63
2023/03/20 12:25:01;;;;;;;;;;;;;;;8.22;89.13;101845.38;5022885;28;19992;-63
2023/03/20 12:27:29;;;;;;;;;;;;;;;8.21;89.07;101846.34;5024521;28;19928;-63
2023/03/20 12:30:00;;;;;;;;;;;;;;;8.24;88.86;101843.44;5018033;28;19928;-63
2023/03/20 12:32:28;;;;;;;;;;;;;;;8.23;89.13;101835.63;5019936;28;19932;-63
2023/03/20 12:34:57;;;;;;;;;;;;;;;8.22;89.09;101839.25;5020148;28;20012;-63
2023/03/20 12:37:22;;;;;;;;;;;;;;;8.23;89.41;101839.13;5026230;28;20039;-63
2023/03/20 12:39:58;;;;;;;;;;;;;;;8.24;89.75;101835.50;5023807;28;20374;-62
2023/03/20 12:42:24;;;;;;;;;;;;;;;8.23;89.21;101827.69;5020194;28;19917;-63
2023/03/20 12:44:54;;;;;;;;;;;;;;;8.22;89.40;101828.66;5027250;28;19913;-63
2023/03/20 12:47:43;;;;;;;;;;;;;;;8.21;89.36;101824.34;5026832;28;19913;-63
2023/03/20 12:50:08;;;;;;;;;;;;;;;8.22;89.63;101818.91;5017722;28;19922;-63